createdAt,value
2019-02-25T00:00:07.308Z,1.30
2019-02-25T00:02:39.495Z,1.26
2019-02-25T00:05:11.347Z,1.20
2019-02-25T00:07:42.873Z,1.24
2019-02-25T00:10:14.631Z,1.17
2019-02-25T00:12:46.497Z,1.11
2019-02-25T00:15:18.059Z,0.99
2019-02-25T00:17:49.764Z,1.04
2019-02-25T00:20:21.473Z,1.08
2019-02-25T00:22:53.055Z,1.03
2019-02-25T00:25:24.864Z,1.09
2019-02-25T00:27:56.684Z,1.19
2019-02-25T00:30:28.404Z,1.13
2019-02-25T00:33:00.013Z,1.08
2019-02-25T00:35:31.801Z,0.97
2019-02-25T00:38:03.470Z,1.10
2019-02-25T00:40:35.346Z,1.05
2019-02-25T00:43:06.910Z,1.04
2019-02-25T00:45:38.582Z,0.99
2019-02-25T00:48:10.664Z,0.89
2019-02-25T00:50:42.649Z,1.28
2019-02-25T00:53:14.489Z,2.15
2019-02-25T00:55:46.330Z,1.69
2019-02-25T00:58:17.918Z,1.50
2019-02-25T01:00:49.494Z,1.24
2019-02-25T01:03:21.119Z,1.05
2019-02-25T01:05:52.712Z,0.96
2019-02-25T01:08:24.358Z,1.03
2019-02-25T01:10:58.865Z,1.20
2019-02-25T01:13:30.610Z,1.16
2019-02-25T01:16:02.322Z,0.97
2019-02-25T01:18:34.242Z,0.93
2019-02-25T01:21:06.170Z,0.91
2019-02-25T01:23:37.976Z,0.95
2019-02-25T01:26:09.817Z,0.79
2019-02-25T01:28:41.491Z,1.11
2019-02-25T01:31:13.394Z,0.99
2019-02-25T01:33:45.087Z,0.88
2019-02-25T01:36:17.611Z,0.88
2019-02-25T01:38:49.260Z,0.93
2019-02-25T01:41:21.782Z,1.04
2019-02-25T01:43:53.287Z,1.16
2019-02-25T01:46:25.376Z,1.12
2019-02-25T01:48:57.100Z,1.16
2019-02-25T01:51:28.768Z,1.46
2019-02-25T01:54:00.529Z,1.46
2019-02-25T01:56:32.324Z,1.41
2019-02-25T01:59:03.933Z,1.32
2019-02-25T02:01:35.515Z,1.29
2019-02-25T02:04:07.076Z,1.23
2019-02-25T02:06:38.728Z,1.10
2019-02-25T02:09:11.265Z,0.99
2019-02-25T02:11:42.936Z,0.86
2019-02-25T02:14:14.731Z,0.81
2019-02-25T02:16:46.336Z,1.12
2019-02-25T02:19:17.896Z,1.34
2019-02-25T02:21:49.480Z,1.30
2019-02-25T02:24:21.061Z,1.33
2019-02-25T02:26:52.640Z,1.38
2019-02-25T02:29:24.347Z,1.27
2019-02-25T02:31:55.998Z,1.16
2019-02-25T02:34:27.682Z,1.14
2019-02-25T02:36:59.398Z,1.09
2019-02-25T02:39:30.989Z,1.01
2019-02-25T02:42:17.638Z,1.01
2019-02-25T02:45:09.502Z,0.99
2019-02-25T02:48:28.715Z,1.01
2019-02-25T02:51:00.288Z,1.06
2019-02-25T02:53:32.035Z,0.87
2019-02-25T02:56:03.740Z,0.79
2019-02-25T02:58:35.364Z,0.77
2019-02-25T03:01:07.031Z,0.70
2019-02-25T03:03:38.812Z,0.66
2019-02-25T03:06:10.440Z,0.50
2019-02-25T03:08:42.020Z,0.28
2019-02-25T03:11:13.723Z,0.21
2019-02-25T03:13:45.570Z,0.11
2019-02-25T03:16:17.494Z,0.06
2019-02-25T03:18:49.200Z,0.01
2019-02-25T03:21:20.996Z,0.00
2019-02-25T03:23:52.591Z,0.02
2019-02-25T03:26:24.184Z,-0.03
2019-02-25T03:28:55.806Z,-0.21
2019-02-25T03:31:27.474Z,-0.30
2019-02-25T03:33:59.124Z,-0.29
2019-02-25T03:36:30.890Z,-0.40
2019-02-25T03:39:03.351Z,-0.45
2019-02-25T03:41:35.442Z,-0.39
2019-02-25T03:44:08.275Z,-0.35
2019-02-25T03:46:39.995Z,-0.33
2019-02-25T03:49:12.506Z,-0.30
2019-02-25T03:51:44.184Z,-0.23
2019-02-25T03:54:16.439Z,0.07
2019-02-25T03:56:48.127Z,0.51
2019-02-25T03:59:19.715Z,0.83
2019-02-25T04:01:51.376Z,1.14
2019-02-25T04:04:22.903Z,1.29
2019-02-25T04:06:54.578Z,1.39
2019-02-25T04:09:26.147Z,1.53
2019-02-25T04:11:57.795Z,1.58
2019-02-25T04:14:29.251Z,1.55
2019-02-25T04:17:00.880Z,1.64
2019-02-25T04:19:32.542Z,1.73
2019-02-25T04:22:04.245Z,1.64
2019-02-25T04:24:36.137Z,1.36
2019-02-25T04:27:07.568Z,0.95
2019-02-25T04:29:39.266Z,0.43
2019-02-25T04:32:10.935Z,-0.08
2019-02-25T04:34:42.618Z,-0.56
2019-02-25T04:37:14.257Z,-0.94
2019-02-25T04:39:45.912Z,-1.16
2019-02-25T04:42:17.717Z,-1.27
2019-02-25T04:44:51.254Z,-1.40
2019-02-25T04:47:23.006Z,-1.54
2019-02-25T04:49:54.447Z,-1.67
2019-02-25T04:52:26.081Z,-1.76
2019-02-25T04:54:57.778Z,-1.81
2019-02-25T04:57:29.370Z,-1.84
2019-02-25T05:00:01.123Z,-1.92
2019-02-25T05:02:32.970Z,-1.94
2019-02-25T05:05:04.693Z,-1.99
2019-02-25T05:07:36.293Z,-1.95
2019-02-25T05:10:09.330Z,-1.94
2019-02-25T05:12:42.755Z,-1.90
2019-02-25T05:15:16.826Z,-1.81
2019-02-25T05:18:07.385Z,-1.66
2019-02-25T05:20:39.039Z,-1.62
2019-02-25T05:23:10.675Z,-1.50
2019-02-25T05:25:42.528Z,-1.44
2019-02-25T05:28:14.197Z,-1.29
2019-02-25T05:30:45.971Z,-0.90
2019-02-25T05:33:17.605Z,-0.65
2019-02-25T05:35:49.557Z,-0.28
2019-02-25T05:38:21.444Z,-0.10
2019-02-25T05:40:53.059Z,-0.01
2019-02-25T05:43:24.788Z,0.03
2019-02-25T05:45:56.422Z,-0.07
2019-02-25T05:48:28.409Z,-0.26
2019-02-25T05:51:00.270Z,-0.36
2019-02-25T05:53:32.056Z,-0.48
2019-02-25T05:56:03.817Z,-0.56
2019-02-25T05:58:35.368Z,-0.59
2019-02-25T06:01:11.216Z,-0.64
2019-02-25T06:03:42.994Z,-0.68
2019-02-25T06:06:14.648Z,-0.74
2019-02-25T06:08:46.577Z,-0.76
2019-02-25T06:11:18.235Z,-0.78
2019-02-25T06:13:49.980Z,-0.77
2019-02-25T06:16:21.857Z,-0.73
2019-02-25T06:18:53.406Z,-0.64
2019-02-25T06:21:28.556Z,-0.58
2019-02-25T06:24:00.183Z,-0.53
2019-02-25T06:26:31.884Z,-0.51
2019-02-25T06:29:03.702Z,0.38
2019-02-25T06:31:35.246Z,1.55
2019-02-25T06:34:06.907Z,2.58
2019-02-25T06:36:38.511Z,3.71
2019-02-25T06:39:10.449Z,4.52
2019-02-25T06:41:42.106Z,5.34
2019-02-25T06:44:13.687Z,5.94
2019-02-25T06:46:45.507Z,6.49
2019-02-25T06:49:17.272Z,6.84
2019-02-25T06:51:48.974Z,7.28
2019-02-25T06:54:20.792Z,7.91
2019-02-25T06:56:54.466Z,8.55
2019-02-25T06:59:26.245Z,8.90
2019-02-25T07:01:57.920Z,9.34
2019-02-25T07:04:48.213Z,9.85
2019-02-25T07:07:24.718Z,10.30
2019-02-25T07:10:32.882Z,10.78
2019-02-25T07:13:15.791Z,11.28
2019-02-25T07:16:09.051Z,11.48
2019-02-25T07:19:03.247Z,11.54
2019-02-25T07:21:53.026Z,12.33
2019-02-25T07:24:52.433Z,12.91
2019-02-25T07:27:48.092Z,13.47
2019-02-25T07:30:54.161Z,14.21
2019-02-25T07:33:41.876Z,15.39
2019-02-25T07:36:33.596Z,15.44
2019-02-25T07:39:34.516Z,15.07
2019-02-25T07:42:22.884Z,14.79
2019-02-25T07:45:34.026Z,14.27
2019-02-25T07:48:24.724Z,14.37
2019-02-25T07:51:15.935Z,12.82
2019-02-25T07:54:12.702Z,11.59
2019-02-25T07:57:13.760Z,10.66
2019-02-25T08:00:21.448Z,9.94
2019-02-25T08:03:18.774Z,9.73
2019-02-25T08:06:18.037Z,9.76
2019-02-25T08:09:17.123Z,9.81
2019-02-25T08:12:08.774Z,10.15
2019-02-25T08:14:51.961Z,10.95
2019-02-25T08:17:46.314Z,11.56
2019-02-25T08:20:37.518Z,11.52
2019-02-25T08:23:27.604Z,11.27
2019-02-25T08:26:36.326Z,10.93
2019-02-25T08:29:26.482Z,10.69
2019-02-25T08:32:17.790Z,10.77
2019-02-25T08:35:10.226Z,11.03
2019-02-25T08:38:12.502Z,11.13
2019-02-25T08:41:45.011Z,11.04
2019-02-25T08:44:27.555Z,10.81
2019-02-25T08:47:18.526Z,11.07
2019-02-25T08:49:58.741Z,11.09
2019-02-25T08:52:33.460Z,10.89
2019-02-25T08:55:09.397Z,10.56
2019-02-25T08:57:45.125Z,10.63
2019-02-25T09:00:18.518Z,10.76
2019-02-25T09:02:53.774Z,11.22
2019-02-25T09:05:28.920Z,11.43
2019-02-25T09:08:03.110Z,11.97
2019-02-25T09:10:36.706Z,12.40
2019-02-25T09:13:09.693Z,12.77
2019-02-25T09:15:44.684Z,13.61
2019-02-25T09:18:18.164Z,15.41
2019-02-25T09:20:52.231Z,16.00
2019-02-25T09:23:27.299Z,16.26
2019-02-25T09:26:01.342Z,15.65
2019-02-25T09:28:36.635Z,15.99
2019-02-25T09:31:12.547Z,16.81
2019-02-25T09:33:49.939Z,17.71
2019-02-25T09:36:22.907Z,17.91
2019-02-25T09:39:00.561Z,17.25
2019-02-25T09:41:32.231Z,17.24
2019-02-25T09:44:04.304Z,17.15
2019-02-25T09:46:36.361Z,16.70
2019-02-25T09:49:09.281Z,16.98
2019-02-25T09:51:41.713Z,17.69
2019-02-25T09:54:13.622Z,17.31
2019-02-25T09:56:45.278Z,17.46
2019-02-25T09:59:17.103Z,16.43
2019-02-25T10:01:48.978Z,17.40
2019-02-25T10:04:20.608Z,17.92
2019-02-25T10:06:52.342Z,18.02
2019-02-25T10:09:29.877Z,18.17
2019-02-25T10:11:57.627Z,17.93
2019-02-25T10:14:29.486Z,18.97
2019-02-25T10:17:01.715Z,18.98
2019-02-25T10:19:34.811Z,19.22
2019-02-25T10:22:06.617Z,20.09
2019-02-25T10:24:39.862Z,20.99
2019-02-25T10:27:11.342Z,21.52
2019-02-25T10:29:43.159Z,20.32
2019-02-25T10:32:15.274Z,19.37
2019-02-25T10:34:47.347Z,19.30
2019-02-25T10:37:19.325Z,19.59
2019-02-25T10:39:51.547Z,19.89
2019-02-25T10:42:23.491Z,20.25
2019-02-25T10:44:55.439Z,20.17
2019-02-25T10:47:27.133Z,20.24
2019-02-25T10:50:00.716Z,19.86
2019-02-25T10:52:32.227Z,20.29
2019-02-25T10:55:03.937Z,21.01
2019-02-25T10:57:36.735Z,19.87
2019-02-25T11:00:11.670Z,19.92
2019-02-25T11:02:46.273Z,20.14
2019-02-25T11:05:19.091Z,17.62
2019-02-25T11:07:51.347Z,16.01
2019-02-25T11:10:31.845Z,15.05
2019-02-25T11:13:04.327Z,14.35
2019-02-25T11:15:39.651Z,14.39
2019-02-25T11:18:11.828Z,17.18
2019-02-25T11:20:43.535Z,18.26
2019-02-25T11:23:18.909Z,19.08
2019-02-25T11:25:51.507Z,18.78
2019-02-25T11:28:25.947Z,18.73
2019-02-25T11:30:57.576Z,19.75
2019-02-25T11:33:30.308Z,19.67
2019-02-25T11:36:03.191Z,20.27
2019-02-25T11:38:37.361Z,20.74
2019-02-25T11:41:11.130Z,20.84
2019-02-25T11:43:44.058Z,21.78
2019-02-25T11:46:16.003Z,22.03
2019-02-25T11:48:47.895Z,21.68
2019-02-25T11:51:19.603Z,18.62
2019-02-25T11:53:52.071Z,16.70
2019-02-25T11:56:23.875Z,15.30
2019-02-25T11:58:56.075Z,14.68
2019-02-25T12:01:27.560Z,14.24
2019-02-25T12:03:59.484Z,14.88
2019-02-25T12:06:31.475Z,14.55
2019-02-25T12:09:03.890Z,13.76
2019-02-25T12:11:35.550Z,13.40
2019-02-25T12:14:07.307Z,13.32
2019-02-25T12:16:39.268Z,14.65
2019-02-25T12:19:17.790Z,15.48
2019-02-25T12:21:44.760Z,17.15
2019-02-25T12:24:16.755Z,16.75
2019-02-25T12:26:48.752Z,17.66
2019-02-25T12:29:20.571Z,19.23
2019-02-25T12:31:52.426Z,19.86
2019-02-25T12:34:24.226Z,19.74
2019-02-25T12:36:55.967Z,19.24
2019-02-25T12:39:27.696Z,18.65
2019-02-25T12:41:59.685Z,18.22
2019-02-25T12:44:31.367Z,18.95
2019-02-25T12:47:03.190Z,18.58
2019-02-25T12:49:36.705Z,18.67
2019-02-25T12:52:08.688Z,18.89
2019-02-25T12:54:40.273Z,19.81
2019-02-25T12:57:13.004Z,20.29
2019-02-25T12:59:44.881Z,19.73
2019-02-25T13:02:17.523Z,20.39
2019-02-25T13:04:50.553Z,20.64
2019-02-25T13:07:22.638Z,19.26
2019-02-25T13:09:55.202Z,20.22
2019-02-25T13:12:29.800Z,20.26
2019-02-25T13:15:02.199Z,19.67
2019-02-25T13:17:34.342Z,19.80
2019-02-25T13:20:06.836Z,20.38
2019-02-25T13:22:39.169Z,20.38
2019-02-25T13:25:13.207Z,20.49
2019-02-25T13:27:45.185Z,20.47
2019-02-25T13:30:18.071Z,19.77
2019-02-25T13:32:49.840Z,19.57
2019-02-25T13:35:22.078Z,19.11
2019-02-25T13:37:53.877Z,19.26
2019-02-25T13:40:25.670Z,19.04
2019-02-25T13:42:57.820Z,19.35
2019-02-25T13:45:29.915Z,19.56
2019-02-25T13:48:01.753Z,19.61
2019-02-25T13:50:34.044Z,19.77
2019-02-25T13:53:06.073Z,19.60
2019-02-25T13:55:38.458Z,19.94
2019-02-25T13:58:10.184Z,19.60
2019-02-25T14:00:42.730Z,19.50
2019-02-25T14:03:19.515Z,19.47
2019-02-25T14:05:51.630Z,19.12
2019-02-25T14:08:23.638Z,19.16
2019-02-25T14:10:56.192Z,19.20
2019-02-25T14:13:28.844Z,19.09
2019-02-25T14:16:01.309Z,19.36
2019-02-25T14:18:33.604Z,19.83
2019-02-25T14:21:05.642Z,19.52
2019-02-25T14:23:38.269Z,19.18
2019-02-25T14:26:11.875Z,19.04
2019-02-25T14:28:43.829Z,17.83
2019-02-25T14:31:15.687Z,16.99
2019-02-25T14:33:52.060Z,16.82
2019-02-25T14:36:22.505Z,17.24
2019-02-25T14:38:56.246Z,16.57
2019-02-25T14:41:27.985Z,16.68
2019-02-25T14:44:00.461Z,17.32
2019-02-25T14:46:32.824Z,17.86
2019-02-25T14:49:08.092Z,18.10
2019-02-25T14:51:40.196Z,18.23
2019-02-25T14:54:11.939Z,18.09
2019-02-25T14:56:45.043Z,17.24
2019-02-25T14:59:20.321Z,17.25
2019-02-25T15:01:52.114Z,17.48
2019-02-25T15:04:24.335Z,17.30
2019-02-25T15:06:56.842Z,17.18
2019-02-25T15:09:30.788Z,17.32
2019-02-25T15:12:04.150Z,17.41
2019-02-25T15:14:36.598Z,18.06
2019-02-25T15:17:10.644Z,18.16
2019-02-25T15:19:43.761Z,18.17
2019-02-25T15:22:16.211Z,17.63
2019-02-25T15:24:50.255Z,17.28
2019-02-25T15:27:22.665Z,17.16
2019-02-25T15:29:55.331Z,17.00
2019-02-25T15:32:29.529Z,16.81
2019-02-25T15:35:01.678Z,16.41
2019-02-25T15:37:33.547Z,16.51
2019-02-25T15:40:09.850Z,16.52
2019-02-25T15:42:42.134Z,16.46
2019-02-25T15:45:17.964Z,15.92
2019-02-25T15:47:50.828Z,16.04
2019-02-25T15:50:24.935Z,15.60
2019-02-25T15:53:00.737Z,15.68
2019-02-25T15:55:32.030Z,15.75
2019-02-25T15:58:04.196Z,15.81
2019-02-25T16:00:39.641Z,15.55
2019-02-25T16:03:13.773Z,15.40
2019-02-25T16:05:46.559Z,14.98
2019-02-25T16:08:20.942Z,15.20
2019-02-25T16:10:53.369Z,15.30
2019-02-25T16:13:26.094Z,15.08
2019-02-25T16:15:58.097Z,15.04
2019-02-25T16:18:30.076Z,15.00
2019-02-25T16:21:02.653Z,14.67
2019-02-25T16:23:37.055Z,14.43
2019-02-25T16:26:10.706Z,14.30
2019-02-25T16:28:43.854Z,14.20
2019-02-25T16:31:16.610Z,13.89
2019-02-25T16:33:49.713Z,13.73
2019-02-25T16:36:24.438Z,13.59
2019-02-25T16:38:58.604Z,13.34
2019-02-25T16:41:32.351Z,13.06
2019-02-25T16:44:24.267Z,12.83
2019-02-25T16:46:56.602Z,12.63
2019-02-25T16:49:29.493Z,12.57
2019-02-25T16:52:03.537Z,12.41
2019-02-25T16:54:35.372Z,12.34
2019-02-25T16:57:07.349Z,12.23
2019-02-25T16:59:39.539Z,12.10
2019-02-25T17:02:14.180Z,12.09
2019-02-25T17:04:45.566Z,12.00
2019-02-25T17:07:18.307Z,11.87
2019-02-25T17:09:51.202Z,11.80
2019-02-25T17:12:25.266Z,11.77
2019-02-25T17:14:57.457Z,11.78
2019-02-25T17:17:29.310Z,11.65
2019-02-25T17:20:02.842Z,11.56
2019-02-25T17:22:34.852Z,11.56
2019-02-25T17:25:09.779Z,11.47
2019-02-25T17:27:42.676Z,11.43
2019-02-25T17:30:20.301Z,11.40
2019-02-25T17:32:53.050Z,11.21
2019-02-25T17:35:27.913Z,11.20
2019-02-25T17:38:03.618Z,11.10
2019-02-25T17:40:34.912Z,11.15
2019-02-25T17:43:08.874Z,11.06
2019-02-25T17:45:41.120Z,11.00
2019-02-25T17:48:15.999Z,10.89
2019-02-25T17:50:47.928Z,10.87
2019-02-25T17:53:22.372Z,10.91
2019-02-25T17:55:57.223Z,10.74
2019-02-25T17:58:30.949Z,10.53
2019-02-25T18:01:05.736Z,10.49
2019-02-25T18:03:39.968Z,10.49
2019-02-25T18:06:14.513Z,10.57
2019-02-25T18:08:48.816Z,10.78
2019-02-25T18:11:24.182Z,10.57
2019-02-25T18:13:57.938Z,10.25
2019-02-25T18:16:33.260Z,10.37
2019-02-25T18:19:09.211Z,10.18
2019-02-25T18:21:43.775Z,10.01
2019-02-25T18:24:17.123Z,9.66
2019-02-25T18:26:50.793Z,9.74
2019-02-25T18:29:25.230Z,9.96
2019-02-25T18:31:58.749Z,9.88
2019-02-25T18:34:34.266Z,9.60
2019-02-25T18:37:09.226Z,9.44
2019-02-25T18:39:45.719Z,9.56
2019-02-25T18:42:20.264Z,9.33
2019-02-25T18:44:53.913Z,9.03
2019-02-25T18:47:27.960Z,9.08
2019-02-25T18:50:01.324Z,9.12
2019-02-25T18:52:37.991Z,9.20
2019-02-25T18:55:12.519Z,9.46
2019-02-25T18:57:46.092Z,9.35
2019-02-25T19:00:42.566Z,9.25
2019-02-25T19:03:13.819Z,9.21
2019-02-25T19:05:46.359Z,9.26
2019-02-25T19:08:22.872Z,9.27
2019-02-25T19:10:57.278Z,8.97
2019-02-25T19:13:32.096Z,8.75
2019-02-25T19:16:05.981Z,8.60
2019-02-25T19:18:41.312Z,8.50
2019-02-25T19:21:14.799Z,8.32
2019-02-25T19:23:48.638Z,8.28
2019-02-25T19:26:23.264Z,8.59
2019-02-25T19:28:58.618Z,8.50
2019-02-25T19:31:32.275Z,8.24
2019-02-25T19:34:06.481Z,7.93
2019-02-25T19:36:41.215Z,7.73
2019-02-25T19:39:17.344Z,7.61
2019-02-25T19:41:51.415Z,7.48
2019-02-25T19:44:27.512Z,7.59
2019-02-25T19:47:01.136Z,7.67
2019-02-25T19:49:36.717Z,7.77
2019-02-25T19:52:12.077Z,8.00
2019-02-25T19:54:48.146Z,8.36
2019-02-25T19:57:23.558Z,8.41
2019-02-25T19:59:57.900Z,8.18
2019-02-25T20:02:32.340Z,8.14
2019-02-25T20:05:09.599Z,8.17
2019-02-25T20:07:41.727Z,8.09
2019-02-25T20:10:15.696Z,8.02
2019-02-25T20:12:50.124Z,7.85
2019-02-25T20:15:25.084Z,8.00
2019-02-25T20:17:55.799Z,7.99
2019-02-25T20:20:34.627Z,7.96
2019-02-25T20:23:08.605Z,7.89
2019-02-25T20:25:44.732Z,7.80
2019-02-25T20:28:18.032Z,7.89
2019-02-25T20:30:51.644Z,7.98
2019-02-25T20:33:30.519Z,8.01
2019-02-25T20:36:01.314Z,7.78
2019-02-25T20:38:34.803Z,7.33
2019-02-25T20:41:07.599Z,6.89
2019-02-25T20:43:42.139Z,6.54
2019-02-25T20:46:13.943Z,6.30
2019-02-25T20:48:48.402Z,6.08
2019-02-25T20:51:19.426Z,5.88
2019-02-25T20:53:52.943Z,5.70
2019-02-25T20:56:26.523Z,5.62
2019-02-25T20:58:59.026Z,5.50
2019-02-25T21:01:35.246Z,5.32
2019-02-25T21:04:05.956Z,5.17
2019-02-25T21:06:39.768Z,5.04
2019-02-25T21:09:11.771Z,4.97
2019-02-25T21:11:44.043Z,4.94
2019-02-25T21:14:16.042Z,5.00
2019-02-25T21:16:47.679Z,5.11
2019-02-25T21:19:20.087Z,5.19
2019-02-25T21:21:55.065Z,5.26
2019-02-25T21:24:26.933Z,5.29
2019-02-25T21:27:01.095Z,5.28
2019-02-25T21:29:34.815Z,5.37
2019-02-25T21:32:10.556Z,5.36
2019-02-25T21:34:46.202Z,5.42
2019-02-25T21:37:16.064Z,5.44
2019-02-25T21:39:48.451Z,5.40
2019-02-25T21:42:22.363Z,5.26
2019-02-25T21:44:54.686Z,5.22
2019-02-25T21:47:30.721Z,5.27
2019-02-25T21:50:04.040Z,5.17
2019-02-25T21:52:36.858Z,5.07
2019-02-25T21:55:11.777Z,4.94
2019-02-25T21:57:44.076Z,4.93
2019-02-25T22:00:18.064Z,4.85
2019-02-25T22:02:52.257Z,4.74
2019-02-25T22:05:24.197Z,4.60
2019-02-25T22:07:57.747Z,4.46
2019-02-25T22:10:29.966Z,4.36
2019-02-25T22:13:04.602Z,4.24
2019-02-25T22:15:36.238Z,4.21
2019-02-25T22:18:11.415Z,4.17
2019-02-25T22:20:45.237Z,4.16
2019-02-25T22:23:16.549Z,4.16
2019-02-25T22:25:48.650Z,4.22
2019-02-25T22:28:20.408Z,4.26
2019-02-25T22:30:53.973Z,4.32
2019-02-25T22:33:27.847Z,4.27
2019-02-25T22:35:59.119Z,4.21
2019-02-25T22:38:30.881Z,4.18
2019-02-25T22:41:04.023Z,4.11
2019-02-25T22:43:36.825Z,4.14
2019-02-25T22:46:11.521Z,4.19
2019-02-25T22:48:44.971Z,4.26
2019-02-25T22:51:19.523Z,4.30
2019-02-25T22:53:50.683Z,4.35
2019-02-25T22:56:23.386Z,4.39
2019-02-25T22:58:56.621Z,4.47
2019-02-25T23:01:29.370Z,4.48
2019-02-25T23:04:01.027Z,4.49
2019-02-25T23:06:32.758Z,4.48
2019-02-25T23:09:04.848Z,4.50
2019-02-25T23:11:39.865Z,4.46
2019-02-25T23:14:13.681Z,4.46
2019-02-25T23:16:48.043Z,4.53
2019-02-25T23:19:22.611Z,4.63
2019-02-25T23:21:58.023Z,4.56
2019-02-25T23:24:34.618Z,4.69
2019-02-25T23:27:07.830Z,4.75
2019-02-25T23:29:41.260Z,4.90
2019-02-25T23:32:17.443Z,4.95
2019-02-25T23:34:52.747Z,4.98
2019-02-25T23:37:28.170Z,4.99
2019-02-25T23:40:07.353Z,5.00
2019-02-25T23:42:44.349Z,4.96
2019-02-25T23:45:20.259Z,4.91
2019-02-25T23:47:57.683Z,4.83
2019-02-25T23:50:31.873Z,4.73
2019-02-25T23:56:00.610Z,4.44
2019-02-25T23:58:38.339Z,4.23
